Latest Weather Observations for Rabbit Flat

IDD60801

Issued at 5:41 pm CST Sunday 15 September 2019 (issued every 10 minutes, with the page automatically refreshed every 10 minutes)

About weather observations | Map of weather stations | Latest weather observations for NT | Other Formats
Station Details ID: 015666 Name: RABBIT FLAT Lat: -20.18 Lon: 130.01 Height: 340.0 m
Data from the previous 72 hours. | See also: Recent months at Rabbit Flat
Date/Time
CST
Temp
°C
App
Temp
°C
Dew
Point
°C
Rel
Hum
%
Delta-T
°C
Wind Press
QNH
hPa
Press
MSL
hPa
Rain since
9am
mm
Dir  Spd
km/h
Gust
km/h
Spd
kts
Gust
kts
15/05:30pm 32.3 25.7 -14.8 4 18.1 E 17 30 9 16 1016.5 - 0.0
15/05:00pm 32.8 27.0 -14.5 4 18.4 ESE 13 28 7 15 1016.4 - 0.0
15/04:30pm 32.8 25.7 -17.9 3 18.7 ESE 19 28 10 15 1016.5 - 0.0
15/04:00pm 33.2 26.3 -14.2 4 18.6 ENE 19 37 10 20 1016.4 - 0.0
15/03:30pm 33.7 27.2 -13.9 4 18.9 E 17 24 9 13 1016.7 - 0.0
15/03:00pm 33.2 26.3 -14.2 4 18.6 E 19 35 10 19 1016.9 1015.2 0.0
15/02:30pm 32.9 26.3 -14.4 4 18.4 E 17 33 9 18 1017.3 - 0.0
15/02:00pm 32.5 25.3 -14.7 4 18.2 SE 20 30 11 16 1017.8 - 0.0
15/01:30pm 32.6 25.5 -14.6 4 18.3 E 20 35 11 19 1018.4 - 0.0
15/01:00pm 31.9 24.5 -12.4 5 17.7 NNE 22 35 12 19 1018.8 - 0.0
15/12:30pm 32.1 24.7 -12.2 5 17.8 ENE 22 32 12 17 1019.5 - 0.0
15/12:00pm 32.2 24.4 -12.2 5 17.8 ENE 24 35 13 19 1020.1 1018.4 0.0
15/11:30am 31.1 22.5 -12.9 5 17.3 NE 28 41 15 22 1020.5 - 0.0
15/11:00am 30.8 22.4 -10.9 6 16.9 NE 28 41 15 22 1020.9 - 0.0
15/10:30am 29.9 21.0 -11.5 6 16.4 NE 30 43 16 23 1021.0 - 0.0
15/10:04am 29.7 21.2 -11.7 6 16.4 ENE 28 46 15 25 1021.0 - 0.0
15/10:00am 30.2 22.1 -11.3 6 16.6 ENE 26 37 14 20 1021.1 - 0.0
15/09:30am 28.5 21.1 -12.5 6 15.8 ENE 22 35 12 19 1021.3 - 0.0
15/09:00am 25.2 20.0 -11.4 8 13.8 ENE 11 17 6 9 1021.5 1019.9 0.0
15/08:30am 21.9 17.4 -11.1 10 12.1 ENE 7 13 4 7 1021.3 - 0.0
15/08:00am 16.8 12.5 -11.7 13 9.7 WNW 6 7 3 4 1020.8 - 0.0
15/07:30am 11.9 7.3 -13.9 15 7.9 NW 7 7 4 4 1020.4 - 0.0
15/07:00am 8.6 4.1 -15.0 17 6.7 N 6 7 3 4 1019.8 - 0.0
15/06:30am 8.7 4.1 -16.5 15 6.9 ENE 6 7 3 4 1019.5 - 0.0
15/06:00am 10.2 5.1 -14.5 16 7.2 E 9 13 5 7 1019.3 1017.6 0.0
15/05:30am 8.9 4.4 -15.5 16 6.8 E 6 7 3 4 1019.1 - 0.0
15/05:00am 9.8 6.5 -14.1 17 7.0 CALM 0 0 0 0 1018.7 - 0.0
15/04:30am 9.8 5.3 -15.6 15 7.2 WNW 6 9 3 5 1018.5 - 0.0
15/04:00am 10.8 6.1 -14.8 15 7.5 NNW 7 9 4 5 1018.5 - 0.0
15/03:30am 10.3 6.9 -16.0 14 7.5 CALM 0 6 0 3 1018.3 - 0.0
15/03:00am 10.7 6.2 -15.7 14 7.6 ESE 6 6 3 3 1018.5 1016.8 0.0
15/02:30am 11.2 7.8 -15.3 14 7.7 CALM 0 6 0 3 1018.5 - 0.0
15/02:00am 11.2 7.8 -15.3 14 7.7 CALM 0 0 0 0 1018.8 - 0.0
15/01:30am 12.1 8.7 -15.4 13 8.1 CALM 0 0 0 0 1019.0 - 0.0
15/01:00am 12.4 8.6 -15.2 13 8.2 E 2 6 1 3 1019.3 - 0.0
15/12:30am 13.4 8.9 -14.4 13 8.6 E 6 7 3 4 1019.4 - 0.0
15/12:00am 14.0 9.4 -13.0 14 8.6 E 7 9 4 5 1019.5 1017.8 0.0
 
Date/Time
CST
Temp
°C
App
Temp
°C
Dew
Point
°C
Rel
Hum
%
Delta-T
°C
Wind Press
QNH
hPa
Press
MSL
hPa
Rain since
9am
mm
Dir  Spd
km/h
Gust
km/h
Spd
kts
Gust
kts
14/11:30pm 14.3 9.6 -14.7 12 9.0 E 7 9 4 5 1019.6 - 0.0
14/11:00pm 15.2 11.9 -14.0 12 9.3 CALM 0 6 0 3 1019.9 - 0.0
14/10:30pm 15.7 11.0 -14.6 11 9.6 ESE 7 13 4 7 1019.7 - 0.0
14/10:00pm 17.0 12.5 -14.8 10 10.2 E 6 7 3 4 1019.8 - 0.0
14/09:30pm 18.1 13.6 -14.0 10 10.6 E 6 7 3 4 1019.8 - 0.0
14/09:00pm 19.4 14.7 -14.2 9 11.3 ENE 7 9 4 5 1019.8 1018.1 0.0
14/08:30pm 22.2 17.6 -13.6 8 12.6 ENE 7 9 4 5 1019.4 - 0.0
14/08:00pm 25.3 20.4 -11.3 8 13.9 E 9 11 5 6 1019.3 - 0.0
14/07:30pm 26.3 21.4 -12.2 7 14.6 E 9 11 5 6 1018.8 - 0.0
14/07:00pm 28.3 23.0 -12.7 6 15.7 E 11 15 6 8 1018.4 - 0.0
14/06:30pm 30.6 23.7 -13.3 5 17.0 E 19 28 10 15 1018.1 - 0.0
14/06:00pm 31.6 24.8 -12.6 5 17.5 E 19 30 10 16 1018.0 1016.3 0.0
14/05:30pm 32.3 24.9 -12.1 5 17.9 E 22 37 12 20 1018.1 - 0.0
14/05:00pm 32.7 25.0 -11.8 5 18.1 ENE 24 39 13 21 1017.9 - 0.0
14/04:30pm 32.9 25.2 -11.7 5 18.2 ENE 24 39 13 21 1017.9 - 0.0
14/04:00pm 33.0 25.5 -14.3 4 18.5 ENE 22 35 12 19 1017.9 - 0.0
14/03:30pm 33.4 25.3 -11.3 5 18.4 E 26 39 14 21 1018.1 - 0.0
14/03:00pm 33.2 24.7 -11.5 5 18.3 E 28 39 15 21 1018.4 1016.7 0.0
14/02:30pm 33.1 24.6 -11.5 5 18.3 E 28 46 15 25 1018.8 - 0.0
14/02:00pm 32.8 25.1 -11.7 5 18.1 ENE 24 37 13 20 1019.5 - 0.0
14/01:38pm 32.9 24.4 -11.7 5 18.2 E 28 46 15 25 1019.9 - 0.0
14/01:30pm 31.9 23.0 -12.4 5 17.7 E 30 43 16 23 1020.1 - 0.0
14/01:03pm 32.1 23.7 -9.9 6 17.5 NE 28 48 15 26 1020.6 - 0.0
14/01:00pm 31.9 23.5 -10.1 6 17.4 NE 28 39 15 21 1020.7 - 0.0
14/12:31pm 32.2 23.7 -12.2 5 17.8 ENE 28 46 15 25 1021.4 - 0.0
14/12:30pm 32.7 24.7 -9.5 6 17.8 ENE 26 46 14 25 1021.4 - 0.0
14/12:13pm 31.6 22.8 -10.3 6 17.3 ENE 30 54 16 29 1021.7 - 0.0
14/12:00pm 31.8 23.8 -10.2 6 17.3 ENE 26 41 14 22 1022.1 1020.4 0.0
14/11:30am 30.9 22.8 -10.8 6 16.9 ENE 26 35 14 19 1022.6 - 0.0
14/11:00am 30.2 22.1 -11.3 6 16.6 ENE 26 41 14 22 1023.0 - 0.0
14/10:30am 29.6 21.1 -11.7 6 16.3 ENE 28 46 15 25 1023.2 - 0.0
14/10:21am 29.3 20.8 -11.9 6 16.2 ENE 28 46 15 25 1023.2 - 0.0
14/10:00am 28.4 21.4 -12.6 6 15.7 E 20 32 11 17 1023.5 - 0.0
14/09:30am 26.4 19.0 -12.1 7 14.6 E 22 33 12 18 1023.7 - 0.0
14/09:00am 24.3 17.8 -13.7 7 13.6 E 17 24 9 13 1023.6 1021.9 0.0
14/08:30am 21.6 15.8 -14.0 8 12.3 E 13 20 7 11 1023.5 - 0.0
14/08:00am 17.4 12.3 -14.5 10 10.4 ESE 9 17 5 9 1023.3 - 0.0
14/07:46am 15.3 10.6 -15.0 11 9.5 ESE 7 11 4 6 1023.0 - 0.0
14/07:30am 10.3 5.5 -17.8 12 7.6 ESE 7 9 4 5 1022.8 - 0.0
14/07:00am 7.0 2.1 -18.6 14 6.4 SE 7 9 4 5 1022.5 - 0.0
14/06:30am 9.2 4.0 -16.9 14 7.1 SE 9 11 5 6 1022.2 - 0.0
14/06:00am 6.9 2.2 -20.5 12 6.6 E 6 7 3 4 1021.6 1020.0 0.0
14/05:30am 8.2 3.4 -16.9 15 6.7 SE 7 11 4 6 1021.4 - 0.0
14/05:00am 6.9 1.6 -19.6 13 6.5 E 9 11 5 6 1021.0 - 0.0
14/04:30am 7.6 2.7 -19.9 12 6.8 E 7 9 4 5 1020.7 - 0.0
14/04:00am 7.9 3.6 -18.8 13 6.8 ESE 4 6 2 3 1020.5 - 0.0
14/03:30am 9.8 5.0 -18.2 12 7.5 SE 7 13 4 7 1020.6 - 0.0
14/03:00am 8.7 3.8 -19.1 12 7.1 SE 7 7 4 4 1020.8 1019.1 0.0
14/02:30am 9.0 4.1 -18.8 12 7.2 SE 7 9 4 5 1021.0 - 0.0
14/02:00am 9.1 5.6 -18.8 12 7.3 CALM 0 0 0 0 1021.1 - 0.0
14/01:30am 9.7 5.0 -19.3 11 7.5 E 6 6 3 3 1021.3 - 0.0
14/01:00am 10.4 5.7 -18.8 11 7.8 E 6 7 3 4 1021.5 - 0.0
14/12:30am 11.2 6.5 -19.2 10 8.1 SE 6 7 3 4 1021.6 - 0.0
14/12:00am 12.1 7.3 -17.4 11 8.3 SE 7 7 4 4 1021.6 1020.0 0.0
 
Date/Time
CST
Temp
°C
App
Temp
°C
Dew
Point
°C
Rel
Hum
%
Delta-T
°C
Wind Press
QNH
hPa
Press
MSL
hPa
Rain since
9am
mm
Dir  Spd
km/h
Gust
km/h
Spd
kts
Gust
kts
13/11:30pm 13.0 8.2 -16.7 11 8.7 SE 7 9 4 5 1021.6 - 0.0
13/11:00pm 13.1 7.9 -17.8 10 8.8 E 9 9 5 5 1021.4 - 0.0
13/10:30pm 14.2 9.4 -18.2 9 9.3 E 7 9 4 5 1021.5 - 0.0
13/10:00pm 15.9 11.1 -16.9 9 9.9 E 7 9 4 5 1021.6 - 0.0
13/09:30pm 17.5 12.7 -17.1 8 10.7 E 7 9 4 5 1021.5 - 0.0
13/09:00pm 20.1 14.9 -16.7 7 11.8 E 9 11 5 6 1021.4 1019.8 0.0
13/08:30pm 20.4 14.8 -18.3 6 12.2 ESE 11 13 6 7 1021.1 - 0.0
13/08:00pm 23.7 18.2 -16.0 6 13.6 E 11 13 6 7 1020.7 - 0.0
13/07:30pm 25.3 19.4 -17.0 5 14.5 E 13 17 7 9 1020.4 - 0.0
13/07:00pm 27.3 20.9 -18.2 4 15.7 E 15 20 8 11 1020.1 - 0.0
13/06:30pm 29.2 22.1 -16.9 4 16.6 E 19 28 10 15 1019.9 - 0.0
13/06:00pm 30.4 23.0 -19.5 3 17.4 E 20 32 11 17 1019.7 1018.0 0.0
13/05:30pm 31.0 23.6 -19.1 3 17.7 E 20 33 11 18 1019.7 - 0.0
13/05:00pm 31.6 23.5 -18.7 3 18.0 ENE 24 41 13 22 1019.6 - 0.0
13/04:30pm 31.5 24.3 -15.4 4 17.7 ENE 20 39 11 21 1019.6 - 0.0
13/04:00pm 31.5 23.9 -15.4 4 17.7 E 22 35 12 19 1019.8 - 0.0
13/03:30pm 31.7 24.5 -15.2 4 17.8 ENE 20 33 11 18 1019.8 - 0.0
13/03:00pm 31.7 24.5 -15.2 4 17.8 NE 20 37 11 20 1020.0 1018.3 0.0
13/02:30pm 31.4 24.9 -12.7 5 17.4 SE 17 32 9 17 1020.5 - 0.0
13/02:00pm 31.7 24.3 -12.5 5 17.6 ENE 22 39 12 21 1021.0 - 0.0
13/01:30pm 30.5 23.0 -13.3 5 17.0 E 22 35 12 19 1021.5 - 0.0
13/01:00pm 31.1 24.2 -10.7 6 17.0 ENE 20 33 11 18 1021.7 - 0.0
13/12:30pm 30.4 23.5 -11.2 6 16.7 ENE 20 43 11 23 1022.4 - 0.0
13/12:00pm 29.6 21.9 -11.7 6 16.2 E 24 37 13 20 1022.8 1021.1 0.0
13/11:30am 29.2 21.4 -12.0 6 16.1 E 24 46 13 25 1023.2 - 0.0
13/11:00am 28.9 20.6 -14.5 5 16.2 E 26 39 14 21 1023.5 - 0.0
13/10:30am 27.8 18.7 -15.2 5 15.7 E 30 41 16 22 1023.8 - 0.0
13/10:00am 27.1 18.5 -13.5 6 15.1 E 28 44 15 24 1024.2 - 0.0
13/09:30am 25.2 17.3 -14.9 6 14.3 E 24 32 13 17 1024.3 - 0.0
13/09:00am 23.2 15.7 -14.5 7 13.1 E 22 33 12 18 1024.2 1022.6 0.0
13/08:30am 20.6 13.1 -14.8 8 11.9 E 22 35 12 19 1024.0 - 0.0
13/08:00am 17.7 12.3 -14.3 10 10.5 E 11 20 6 11 1023.8 - 0.0
13/07:30am 12.9 7.4 -15.8 12 8.5 SSE 11 13 6 7 1023.4 - 0.0
13/07:00am 10.6 5.4 -16.6 13 7.6 SE 9 13 5 7 1023.0 - 0.0
13/06:30am 10.6 5.1 -16.6 13 7.6 ESE 11 13 6 7 1022.6 - 0.0
13/06:00am 10.4 5.7 -15.9 14 7.4 E 7 11 4 6 1022.3 1020.6 0.0
13/05:30am 10.1 5.3 -17.0 13 7.5 ESE 7 9 4 5 1021.9 - 0.0
13/05:00am 10.5 5.0 -16.7 13 7.6 ESE 11 13 6 7 1021.7 - 0.0
13/04:30am 8.0 3.1 -19.6 12 6.9 SSE 7 9 4 5 1021.4 - 0.0
13/04:00am 8.1 2.5 -18.6 13 6.9 SSE 11 13 6 7 1021.4 - 0.0
13/03:30am 7.5 2.6 -19.1 13 6.7 SSE 7 7 4 4 1021.4 - 0.0
13/03:00am 7.1 3.5 -20.3 12 6.6 CALM 0 0 0 0 1021.6 1020.0 0.0
13/02:30am 8.0 3.6 -20.6 11 7.0 E 4 7 2 4 1021.6 - 0.0
13/02:00am 8.7 4.4 -20.1 11 7.2 E 4 7 2 4 1021.5 - 0.0
13/01:30am 8.9 5.3 -21.0 10 7.4 CALM 0 0 0 0 1021.7 - 0.0
13/01:00am 9.6 6.0 -20.5 10 7.6 CALM 0 0 0 0 1021.9 - 0.0
13/12:30am 10.2 5.5 -20.0 10 7.8 SSE 6 7 3 4 1021.9 - 0.0
13/12:00am 11.1 6.2 -20.5 9 8.2 SSE 7 9 4 5 1022.1 1020.4 0.0
 
Date/Time
CST
Temp
°C
App
Temp
°C
Dew
Point
°C
Rel
Hum
%
Delta-T
°C
Wind Press
QNH
hPa
Press
MSL
hPa
Rain since
9am
mm
Dir  Spd
km/h
Gust
km/h
Spd
kts
Gust
kts
12/11:30pm 11.7 7.0 -18.9 10 8.3 S 6 7 3 4 1022.1 - 0.0
12/11:00pm 12.1 8.1 -19.8 9 8.6 ESE 2 9 1 5 1022.1 - 0.0
12/10:30pm 13.3 8.4 -20.2 8 9.1 E 7 7 4 4 1021.8 - 0.0
12/10:00pm 15.8 11.0 -17.0 9 9.9 E 7 9 4 5 1021.8 - 0.0
12/09:30pm 17.1 12.2 -18.9 7 10.7 ESE 7 9 4 5 1021.8 - 0.0
12/09:00pm 18.7 13.5 -17.8 7 11.3 SE 9 11 5 6 1021.7 1020.1 0.0
12/08:30pm 20.1 14.9 -18.6 6 12.0 ESE 9 11 5 6 1021.5 - 0.0
12/08:00pm 21.6 16.4 -17.5 6 12.7 ESE 9 11 5 6 1021.2 - 0.0
12/07:30pm 23.5 18.3 -18.3 5 13.7 ESE 9 11 5 6 1020.8 - 0.0
12/07:00pm 25.6 19.9 -19.4 4 14.9 ESE 11 17 6 9 1020.5 - 0.0
12/06:30pm 27.9 21.4 -21.1 3 16.2 ESE 15 22 8 12 1020.2 - 0.0
12/06:00pm 29.2 22.4 -20.3 3 16.8 E 17 24 9 13 1020.0 1018.3 0.0

Other formats

Comma delimited format used in spreadsheet applications
http://www.bom.gov.au/fwo/IDD60801/IDD60801.95322.axf

JavaScript Object Notation format (JSON) in row-major order
http://www.bom.gov.au/fwo/IDD60801/IDD60801.95322.json

Data quality

Most of these data are generated automatically and are frequently updated. Quality checks on data are not normally performed. It is possible for incorrect values to appear. Refer to information at About Latest Weather Observations and please check the disclaimer before using these data.